sensor_id;sensor_type;location;lat;lon;timestamp;pressure;altitude;pressure_sealevel;temperature;humidity
18918;BME280;9591;52.742;13.650;2022-10-03T00:00:20;101234.53;;;10.33;100.00
18918;BME280;9591;52.742;13.650;2022-10-03T00:03:28;101232.88;;;10.28;100.00
18918;BME280;9591;52.742;13.650;2022-10-03T00:06:27;101229.19;;;10.35;100.00
18918;BME280;9591;52.742;13.650;2022-10-03T00:09:33;101239.84;;;10.32;100.00
18918;BME280;9591;52.742;13.650;2022-10-03T00:12:36;101247.78;;;10.32;100.00
18918;BME280;9591;52.742;13.650;2022-10-03T00:15:30;101252.91;;;10.39;100.00
18918;BME280;9591;52.742;13.650;2022-10-03T00:18:32;101255.19;;;10.55;100.00
18918;BME280;9591;52.742;13.650;2022-10-03T00:21:36;101257.59;;;10.64;100.00
18918;BME280;9591;52.742;13.650;2022-10-03T00:24:34;101254.19;;;10.59;100.00
18918;BME280;9591;52.742;13.650;2022-10-03T00:27:31;101247.09;;;10.61;100.00
18918;BME280;9591;52.742;13.650;2022-10-03T00:30:20;101245.19;;;10.66;100.00
18918;BME280;9591;52.742;13.650;2022-10-03T00:33:16;101255.94;;;10.60;100.00
18918;BME280;9591;52.742;13.650;2022-10-03T00:36:13;101260.06;;;10.71;100.00
18918;BME280;9591;52.742;13.650;2022-10-03T00:39:26;101261.81;;;10.72;100.00
18918;BME280;9591;52.742;13.650;2022-10-03T00:42:46;101258.19;;;10.76;100.00
18918;BME280;9591;52.742;13.650;2022-10-03T00:46:01;101262.53;;;10.79;100.00
18918;BME280;9591;52.742;13.650;2022-10-03T00:49:11;101260.72;;;10.81;100.00
18918;BME280;9591;52.742;13.650;2022-10-03T00:52:13;101263.38;;;10.81;100.00
18918;BME280;9591;52.742;13.650;2022-10-03T00:55:16;101266.78;;;10.86;100.00
18918;BME280;9591;52.742;13.650;2022-10-03T00:58:16;101268.44;;;10.90;100.00
18918;BME280;9591;52.742;13.650;2022-10-03T01:01:24;101265.81;;;10.89;100.00
18918;BME280;9591;52.742;13.650;2022-10-03T01:04:39;101264.84;;;10.93;100.00
18918;BME280;9591;52.742;13.650;2022-10-03T01:07:49;101274.41;;;10.98;100.00
18918;BME280;9591;52.742;13.650;2022-10-03T01:10:48;101268.94;;;11.06;100.00
18918;BME280;9591;52.742;13.650;2022-10-03T01:13:47;101269.00;;;11.03;100.00
18918;BME280;9591;52.742;13.650;2022-10-03T01:16:42;101274.97;;;11.11;100.00
18918;BME280;9591;52.742;13.650;2022-10-03T01:26:06;101268.22;;;10.99;100.00
18918;BME280;9591;52.742;13.650;2022-10-03T01:29:01;101248.44;;;10.77;100.00
18918;BME280;9591;52.742;13.650;2022-10-03T01:32:09;101274.34;;;11.01;100.00
18918;BME280;9591;52.742;13.650;2022-10-03T01:35:08;101273.31;;;11.07;100.00
18918;BME280;9591;52.742;13.650;2022-10-03T01:38:04;101273.41;;;11.04;100.00
18918;BME280;9591;52.742;13.650;2022-10-03T01:40:58;101275.09;;;11.06;100.00
18918;BME280;9591;52.742;13.650;2022-10-03T01:43:52;101273.63;;;10.95;100.00
18918;BME280;9591;52.742;13.650;2022-10-03T01:46:45;101282.56;;;10.91;100.00
18918;BME280;9591;52.742;13.650;2022-10-03T01:49:38;101280.25;;;10.77;100.00
18918;BME280;9591;52.742;13.650;2022-10-03T01:52:37;101278.56;;;10.73;100.00
18918;BME280;9591;52.742;13.650;2022-10-03T01:55:34;101282.84;;;10.78;100.00
18918;BME280;9591;52.742;13.650;2022-10-03T01:58:29;101285.25;;;10.89;100.00
18918;BME280;9591;52.742;13.650;2022-10-03T02:01:25;101287.81;;;10.92;100.00
18918;BME280;9591;52.742;13.650;2022-10-03T02:04:30;101287.13;;;10.84;100.00
18918;BME280;9591;52.742;13.650;2022-10-03T02:07:27;101293.09;;;10.94;100.00
18918;BME280;9591;52.742;13.650;2022-10-03T02:10:21;101292.06;;;10.99;100.00
18918;BME280;9591;52.742;13.650;2022-10-03T02:13:14;101279.94;;;10.89;100.00
18918;BME280;9591;52.742;13.650;2022-10-03T02:16:09;101293.72;;;11.03;100.00
18918;BME280;9591;52.742;13.650;2022-10-03T02:18:59;101297.50;;;10.93;100.00
18918;BME280;9591;52.742;13.650;2022-10-03T02:21:53;101294.56;;;11.05;100.00
18918;BME280;9591;52.742;13.650;2022-10-03T02:24:48;101298.22;;;11.00;100.00
18918;BME280;9591;52.742;13.650;2022-10-03T02:27:59;101295.47;;;11.04;100.00
18918;BME280;9591;52.742;13.650;2022-10-03T02:31:05;101303.34;;;11.07;100.00
18918;BME280;9591;52.742;13.650;2022-10-03T02:34:22;101299.75;;;11.10;100.00
18918;BME280;9591;52.742;13.650;2022-10-03T02:37:36;101303.16;;;11.15;100.00
18918;BME280;9591;52.742;13.650;2022-10-03T02:44:36;101308.84;;;11.00;100.00
18918;BME280;9591;52.742;13.650;2022-10-03T02:51:41;101324.56;;;11.07;100.00
18918;BME280;9591;52.742;13.650;2022-10-03T02:54:56;101336.81;;;11.11;100.00
18918;BME280;9591;52.742;13.650;2022-10-03T02:58:16;101331.28;;;11.21;100.00
18918;BME280;9591;52.742;13.650;2022-10-03T03:01:51;101327.72;;;11.22;100.00
18918;BME280;9591;52.742;13.650;2022-10-03T03:05:09;101334.09;;;11.14;100.00
18918;BME280;9591;52.742;13.650;2022-10-03T03:11:56;101339.81;;;11.32;100.00
18918;BME280;9591;52.742;13.650;2022-10-03T03:15:27;101347.56;;;11.39;
18918;BME280;9591;52.742;13.650;2022-10-03T03:18:30;101346.50;;;11.46;100.00
18918;BME280;9591;52.742;13.650;2022-10-03T03:21:25;101354.44;;;11.48;100.00
18918;BME280;9591;52.742;13.650;2022-10-03T03:24:25;101343.06;;;11.43;100.00
18918;BME280;9591;52.742;13.650;2022-10-03T03:27:32;101347.47;;;11.44;100.00
18918;BME280;9591;52.742;13.650;2022-10-03T03:30:24;101351.72;;;11.49;100.00
18918;BME280;9591;52.742;13.650;2022-10-03T03:33:22;101348.91;;;11.56;100.00
18918;BME280;9591;52.742;13.650;2022-10-03T03:36:17;101343.97;;;11.42;100.00
18918;BME280;9591;52.742;13.650;2022-10-03T03:39:21;101345.72;;;11.43;100.00
18918;BME280;9591;52.742;13.650;2022-10-03T03:42:32;101349.81;;;11.55;100.00
18918;BME280;9591;52.742;13.650;2022-10-03T03:45:34;101347.84;;;11.63;100.00
18918;BME280;9591;52.742;13.650;2022-10-03T03:48:37;101350.28;;;11.70;100.00
18918;BME280;9591;52.742;13.650;2022-10-03T03:51:34;101353.16;;;11.63;100.00
18918;BME280;9591;52.742;13.650;2022-10-03T03:54:51;101352.19;;;11.65;100.00
18918;BME280;9591;52.742;13.650;2022-10-03T03:57:56;101356.72;;;11.62;100.00
18918;BME280;9591;52.742;13.650;2022-10-03T04:00:57;101354.13;;;11.59;100.00
18918;BME280;9591;52.742;13.650;2022-10-03T04:03:57;101357.59;;;11.62;100.00
18918;BME280;9591;52.742;13.650;2022-10-03T04:06:55;101352.25;;;11.64;100.00
18918;BME280;9591;52.742;13.650;2022-10-03T04:09:57;101363.72;;;11.64;100.00
18918;BME280;9591;52.742;13.650;2022-10-03T04:16:44;101371.53;;;11.70;100.00
18918;BME280;9591;52.742;13.650;2022-10-03T04:20:01;101368.13;;;11.65;100.00
18918;BME280;9591;52.742;13.650;2022-10-03T04:23:07;101376.66;;;11.76;100.00
18918;BME280;9591;52.742;13.650;2022-10-03T04:26:15;101378.50;;;11.74;100.00
18918;BME280;9591;52.742;13.650;2022-10-03T04:29:41;101373.44;;;11.65;100.00
18918;BME280;9591;52.742;13.650;2022-10-03T04:32:49;101376.72;;;11.75;100.00
18918;BME280;9591;52.742;13.650;2022-10-03T04:36:21;101375.09;;;11.69;100.00
18918;BME280;9591;52.742;13.650;2022-10-03T04:39:17;101381.34;;;11.67;100.00
18918;BME280;9591;52.742;13.650;2022-10-03T04:42:15;101381.16;;;11.74;100.00
18918;BME280;9591;52.742;13.650;2022-10-03T04:45:25;101386.53;;;11.71;100.00
18918;BME280;9591;52.742;13.650;2022-10-03T04:48:20;101380.44;;;11.68;100.00
18918;BME280;9591;52.742;13.650;2022-10-03T04:51:18;101384.91;;;11.66;100.00
18918;BME280;9591;52.742;13.650;2022-10-03T04:54:15;101383.97;;;11.68;100.00
18918;BME280;9591;52.742;13.650;2022-10-03T04:57:14;101378.78;;;11.64;100.00
18918;BME280;9591;52.742;13.650;2022-10-03T05:00:13;101383.16;;;11.65;100.00
18918;BME280;9591;52.742;13.650;2022-10-03T05:03:09;101390.84;;;11.75;100.00
18918;BME280;9591;52.742;13.650;2022-10-03T05:06:04;101394.50;;;11.71;100.00
18918;BME280;9591;52.742;13.650;2022-10-03T05:09:00;101397.97;;;11.73;100.00
18918;BME280;9591;52.742;13.650;2022-10-03T05:11:57;101396.31;;;11.69;100.00
18918;BME280;9591;52.742;13.650;2022-10-03T05:15:00;101397.38;;;11.62;100.00
18918;BME280;9591;52.742;13.650;2022-10-03T05:17:59;101403.28;;;11.73;100.00
18918;BME280;9591;52.742;13.650;2022-10-03T05:20:55;101401.69;;;11.66;100.00
18918;BME280;9591;52.742;13.650;2022-10-03T05:23:52;101405.97;;;11.72;100.00
18918;BME280;9591;52.742;13.650;2022-10-03T05:26:52;101405.19;;;11.68;100.00
18918;BME280;9591;52.742;13.650;2022-10-03T05:29:52;101407.75;;;11.71;100.00
18918;BME280;9591;52.742;13.650;2022-10-03T05:32:49;101417.41;;;11.74;100.00
18918;BME280;9591;52.742;13.650;2022-10-03T05:35:47;101418.38;;;11.71;100.00
18918;BME280;9591;52.742;13.650;2022-10-03T05:42:10;101427.88;;;11.81;100.00
18918;BME280;9591;52.742;13.650;2022-10-03T05:45:20;101433.25;;;11.78;100.00
18918;BME280;9591;52.742;13.650;2022-10-03T05:48:13;101432.44;;;11.75;100.00
18918;BME280;9591;52.742;13.650;2022-10-03T05:51:21;101442.06;;;11.80;100.00
18918;BME280;9591;52.742;13.650;2022-10-03T05:57:45;101447.47;;;11.74;100.00
18918;BME280;9591;52.742;13.650;2022-10-03T06:00:50;101455.53;;;11.71;100.00
18918;BME280;9591;52.742;13.650;2022-10-03T06:04:03;101465.22;;;11.72;100.00
18918;BME280;9591;52.742;13.650;2022-10-03T06:07:03;101466.06;;;11.74;100.00
18918;BME280;9591;52.742;13.650;2022-10-03T06:10:27;101479.28;;;11.77;100.00
18918;BME280;9591;52.742;13.650;2022-10-03T06:13:33;101484.59;;;11.76;100.00
18918;BME280;9591;52.742;13.650;2022-10-03T06:16:28;101482.03;;;11.73;100.00
18918;BME280;9591;52.742;13.650;2022-10-03T06:19:33;101484.88;;;11.65;100.00
18918;BME280;9591;52.742;13.650;2022-10-03T06:23:09;101486.59;;;11.66;100.00
18918;BME280;9591;52.742;13.650;2022-10-03T06:26:37;101490.22;;;11.64;100.00
18918;BME280;9591;52.742;13.650;2022-10-03T06:30:03;101496.50;;;11.60;100.00
18918;BME280;9591;52.742;13.650;2022-10-03T06:33:26;101500.09;;;11.57;100.00
18918;BME280;9591;52.742;13.650;2022-10-03T06:40:02;101507.72;;;11.71;100.00
18918;BME280;9591;52.742;13.650;2022-10-03T06:43:31;101507.84;;;11.66;100.00
18918;BME280;9591;52.742;13.650;2022-10-03T06:46:37;101501.59;;;11.69;100.00
18918;BME280;9591;52.742;13.650;2022-10-03T06:53:33;101505.88;;;11.74;100.00
18918;BME280;9591;52.742;13.650;2022-10-03T07:00:12;101519.63;;;11.92;100.00
18918;BME280;9591;52.742;13.650;2022-10-03T07:03:25;101511.59;;;11.95;100.00
18918;BME280;9591;52.742;13.650;2022-10-03T07:06:34;101520.53;;;11.91;100.00
18918;BME280;9591;52.742;13.650;2022-10-03T07:09:54;101506.25;;;11.96;100.00
18918;BME280;9591;52.742;13.650;2022-10-03T07:13:00;101512.84;;;11.80;100.00
18918;BME280;9591;52.742;13.650;2022-10-03T07:16:15;101519.84;;;11.82;100.00
18918;BME280;9591;52.742;13.650;2022-10-03T07:19:27;101519.94;;;11.79;100.00
18918;BME280;9591;52.742;13.650;2022-10-03T07:22:50;101525.28;;;11.76;100.00
18918;BME280;9591;52.742;13.650;2022-10-03T07:26:14;101535.09;;;11.73;100.00
18918;BME280;9591;52.742;13.650;2022-10-03T07:29:14;101536.63;;;11.85;100.00
18918;BME280;9591;52.742;13.650;2022-10-03T07:32:39;101531.59;;;12.08;100.00
18918;BME280;9591;52.742;13.650;2022-10-03T07:35:39;101536.28;;;12.31;100.00
18918;BME280;9591;52.742;13.650;2022-10-03T07:38:57;101538.97;;;12.29;100.00
18918;BME280;9591;52.742;13.650;2022-10-03T07:42:03;101542.75;;;12.21;100.00
18918;BME280;9591;52.742;13.650;2022-10-03T07:45:31;101551.16;;;12.38;100.00
18918;BME280;9591;52.742;13.650;2022-10-03T07:48:43;101554.56;;;12.43;100.00
18918;BME280;9591;52.742;13.650;2022-10-03T07:51:39;101557.25;;;12.41;100.00
18918;BME280;9591;52.742;13.650;2022-10-03T07:54:52;101561.38;;;12.53;100.00
18918;BME280;9591;52.742;13.650;2022-10-03T07:58:01;101559.16;;;12.69;100.00
18918;BME280;9591;52.742;13.650;2022-10-03T08:01:07;101570.28;;;12.83;100.00
18918;BME280;9591;52.742;13.650;2022-10-03T08:04:32;101572.59;;;12.95;100.00
18918;BME280;9591;52.742;13.650;2022-10-03T08:07:40;101577.25;;;12.87;100.00
18918;BME280;9591;52.742;13.650;2022-10-03T08:11:03;101575.88;;;13.03;100.00
18918;BME280;9591;52.742;13.650;2022-10-03T08:14:03;101583.88;;;13.02;100.00
18918;BME280;9591;52.742;13.650;2022-10-03T08:17:32;101586.38;;;13.08;100.00
18918;BME280;9591;52.742;13.650;2022-10-03T08:20:49;101586.34;;;13.09;100.00
18918;BME280;9591;52.742;13.650;2022-10-03T08:24:04;101605.72;;;13.13;100.00
18918;BME280;9591;52.742;13.650;2022-10-03T08:30:26;101603.84;;;13.18;100.00
18918;BME280;9591;52.742;13.650;2022-10-03T08:33:44;101597.38;;;13.27;100.00
18918;BME280;9591;52.742;13.650;2022-10-03T08:44:18;101609.34;;;13.71;100.00
18918;BME280;9591;52.742;13.650;2022-10-03T08:50:59;101616.31;;;13.75;100.00
18918;BME280;9591;52.742;13.650;2022-10-03T08:57:12;101611.34;;;13.91;100.00
18918;BME280;9591;52.742;13.650;2022-10-03T09:00:10;101607.25;;;13.81;100.00
18918;BME280;9591;52.742;13.650;2022-10-03T09:03:38;101608.66;;;13.64;100.00
18918;BME280;9591;52.742;13.650;2022-10-03T09:07:00;101613.97;;;13.64;100.00
18918;BME280;9591;52.742;13.650;2022-10-03T09:10:37;101627.19;;;13.67;100.00
18918;BME280;9591;52.742;13.650;2022-10-03T09:13:57;101607.09;;;13.57;100.00
18918;BME280;9591;52.742;13.650;2022-10-03T09:17:23;101620.66;;;13.77;100.00
18918;BME280;9591;52.742;13.650;2022-10-03T09:20:26;101620.72;;;14.02;100.00
18918;BME280;9591;52.742;13.650;2022-10-03T09:30:19;101611.53;;;14.13;100.00
18918;BME280;9591;52.742;13.650;2022-10-03T09:33:23;101623.03;;;14.13;100.00
18918;BME280;9591;52.742;13.650;2022-10-03T09:36:39;101621.41;;;14.09;100.00
18918;BME280;9591;52.742;13.650;2022-10-03T09:43:17;101621.09;;;14.18;100.00
18918;BME280;9591;52.742;13.650;2022-10-03T09:46:37;101615.94;;;14.14;100.00
18918;BME280;9591;52.742;13.650;2022-10-03T09:53:20;101625.47;;;14.21;100.00
18918;BME280;9591;52.742;13.650;2022-10-03T09:56:47;101630.03;;;14.17;100.00
18918;BME280;9591;52.742;13.650;2022-10-03T10:00:02;101625.34;;;14.24;100.00
18918;BME280;9591;52.742;13.650;2022-10-03T10:06:29;101633.13;;;14.58;100.00
18918;BME280;9591;52.742;13.650;2022-10-03T10:09:52;101632.50;;;14.74;100.00
18918;BME280;9591;52.742;13.650;2022-10-03T10:13:10;101619.88;;;14.80;100.00
18918;BME280;9591;52.742;13.650;2022-10-03T10:16:12;101617.59;;;14.94;100.00
18918;BME280;9591;52.742;13.650;2022-10-03T10:23:01;101617.09;;;14.83;100.00
18918;BME280;9591;52.742;13.650;2022-10-03T10:29:31;101623.59;;;14.75;100.00
18918;BME280;9591;52.742;13.650;2022-10-03T10:36:50;101624.84;;;14.90;100.00
18918;BME280;9591;52.742;13.650;2022-10-03T10:43:33;101627.00;;;15.04;100.00
18918;BME280;9591;52.742;13.650;2022-10-03T10:47:04;101621.28;;;15.15;100.00
18918;BME280;9591;52.742;13.650;2022-10-03T10:50:16;101617.81;;;15.36;100.00
18918;BME280;9591;52.742;13.650;2022-10-03T10:56:56;101618.22;;;15.25;100.00
18918;BME280;9591;52.742;13.650;2022-10-03T11:07:06;101617.25;;;15.03;100.00
18918;BME280;9591;52.742;13.650;2022-10-03T11:10:32;101616.41;;;15.26;100.00
18918;BME280;9591;52.742;13.650;2022-10-03T11:13:54;101612.69;;;15.53;100.00
18918;BME280;9591;52.742;13.650;2022-10-03T11:17:13;101607.50;;;15.94;100.00
18918;BME280;9591;52.742;13.650;2022-10-03T11:20:40;101604.22;;;16.09;100.00
18918;BME280;9591;52.742;13.650;2022-10-03T11:27:42;101613.72;;;15.72;100.00
18918;BME280;9591;52.742;13.650;2022-10-03T11:31:02;101602.09;;;15.73;100.00
18918;BME280;9591;52.742;13.650;2022-10-03T11:37:34;101613.13;;;15.64;100.00
18918;BME280;9591;52.742;13.650;2022-10-03T11:40:28;101618.25;;;15.70;100.00
18918;BME280;9591;52.742;13.650;2022-10-03T11:46:53;101610.47;;;15.64;100.00
18918;BME280;9591;52.742;13.650;2022-10-03T11:50:17;101617.69;;;15.39;100.00
18918;BME280;9591;52.742;13.650;2022-10-03T11:53:16;101618.22;;;15.25;100.00
18918;BME280;9591;52.742;13.650;2022-10-03T11:56:15;101608.38;;;15.02;100.00
18918;BME280;9591;52.742;13.650;2022-10-03T11:59:26;101610.81;;;15.08;100.00
18918;BME280;9591;52.742;13.650;2022-10-03T12:02:28;101604.38;;;15.14;100.00
18918;BME280;9591;52.742;13.650;2022-10-03T12:05:30;101600.75;;;15.40;100.00
18918;BME280;9591;52.742;13.650;2022-10-03T12:08:27;101602.31;;;15.46;100.00
18918;BME280;9591;52.742;13.650;2022-10-03T12:11:37;101603.69;;;15.32;100.00
18918;BME280;9591;52.742;13.650;2022-10-03T12:14:29;101599.34;;;15.30;100.00
18918;BME280;9591;52.742;13.650;2022-10-03T12:17:26;101606.19;;;15.37;100.00
18918;BME280;9591;52.742;13.650;2022-10-03T12:20:18;101595.16;;;15.46;100.00
18918;BME280;9591;52.742;13.650;2022-10-03T12:23:19;101603.13;;;15.48;100.00
18918;BME280;9591;52.742;13.650;2022-10-03T12:26:16;101606.47;;;15.53;100.00
18918;BME280;9591;52.742;13.650;2022-10-03T12:29:09;101601.13;;;15.53;100.00
18918;BME280;9591;52.742;13.650;2022-10-03T12:32:14;101605.72;;;15.49;100.00
18918;BME280;9591;52.742;13.650;2022-10-03T12:35:14;101611.41;;;15.40;100.00
18918;BME280;9591;52.742;13.650;2022-10-03T12:38:19;101600.44;;;15.48;100.00
18918;BME280;9591;52.742;13.650;2022-10-03T12:41:24;101603.59;;;15.59;100.00
18918;BME280;9591;52.742;13.650;2022-10-03T12:44:24;101602.88;;;15.54;100.00
18918;BME280;9591;52.742;13.650;2022-10-03T12:47:25;101596.72;;;15.52;100.00
18918;BME280;9591;52.742;13.650;2022-10-03T12:50:40;101603.16;;;15.69;100.00
18918;BME280;9591;52.742;13.650;2022-10-03T12:53:36;101597.06;;;15.88;100.00
18918;BME280;9591;52.742;13.650;2022-10-03T12:56:35;101602.09;;;15.95;100.00
18918;BME280;9591;52.742;13.650;2022-10-03T12:59:30;101590.09;;;16.05;100.00
18918;BME280;9591;52.742;13.650;2022-10-03T13:02:25;101574.56;;;16.15;100.00
18918;BME280;9591;52.742;13.650;2022-10-03T13:05:38;101600.66;;;16.30;100.00
18918;BME280;9591;52.742;13.650;2022-10-03T13:08:41;101592.31;;;16.38;100.00
18918;BME280;9591;52.742;13.650;2022-10-03T13:11:34;101597.50;;;16.21;100.00
18918;BME280;9591;52.742;13.650;2022-10-03T13:14:33;101601.59;;;16.08;100.00
18918;BME280;9591;52.742;13.650;2022-10-03T13:17:29;101595.34;;;15.87;100.00
18918;BME280;9591;52.742;13.650;2022-10-03T13:20:26;101603.16;;;15.69;100.00
18918;BME280;9591;52.742;13.650;2022-10-03T13:23:21;101587.97;;;15.48;100.00
18918;BME280;9591;52.742;13.650;2022-10-03T13:26:15;101598.13;;;15.38;100.00
18918;BME280;9591;52.742;13.650;2022-10-03T13:29:20;101608.00;;;15.36;100.00
18918;BME280;9591;52.742;13.650;2022-10-03T13:32:19;101609.38;;;15.23;100.00
18918;BME280;9591;52.742;13.650;2022-10-03T13:35:18;101611.97;;;15.01;100.00
18918;BME280;9591;52.742;13.650;2022-10-03T13:38:49;101608.22;;;14.82;100.00
18918;BME280;9591;52.742;13.650;2022-10-03T13:41:59;101601.00;;;14.86;100.00
18918;BME280;9591;52.742;13.650;2022-10-03T13:44:54;101604.63;;;15.08;100.00
18918;BME280;9591;52.742;13.650;2022-10-03T13:47:45;101603.28;;;15.20;100.00
18918;BME280;9591;52.742;13.650;2022-10-03T13:50:40;101604.91;;;15.47;100.00
18918;BME280;9591;52.742;13.650;2022-10-03T13:53:51;101603.34;;;15.65;100.00
18918;BME280;9591;52.742;13.650;2022-10-03T13:56:49;101601.91;;;15.78;100.00
18918;BME280;9591;52.742;13.650;2022-10-03T13:59:47;101610.97;;;15.74;100.00
18918;BME280;9591;52.742;13.650;2022-10-03T14:02:56;101593.28;;;15.71;100.00
18918;BME280;9591;52.742;13.650;2022-10-03T14:05:54;101598.00;;;15.65;100.00
18918;BME280;9591;52.742;13.650;2022-10-03T14:09:12;101593.84;;;15.58;100.00
18918;BME280;9591;52.742;13.650;2022-10-03T14:12:14;101605.50;;;15.55;100.00
18918;BME280;9591;52.742;13.650;2022-10-03T14:15:42;101604.69;;;15.53;100.00
18918;BME280;9591;52.742;13.650;2022-10-03T14:18:39;101598.41;;;15.54;100.00
18918;BME280;9591;52.742;13.650;2022-10-03T14:21:39;101598.16;;;15.60;100.00
18918;BME280;9591;52.742;13.650;2022-10-03T14:24:42;101592.91;;;15.35;100.00
18918;BME280;9591;52.742;13.650;2022-10-03T14:27:39;101601.78;;;15.36;100.00
18918;BME280;9591;52.742;13.650;2022-10-03T14:30:30;101607.19;;;15.34;100.00
18918;BME280;9591;52.742;13.650;2022-10-03T14:33:25;101606.13;;;15.38;100.00
18918;BME280;9591;52.742;13.650;2022-10-03T14:36:23;101605.38;;;15.35;100.00
18918;BME280;9591;52.742;13.650;2022-10-03T14:39:26;101609.38;;;15.23;100.00
18918;BME280;9591;52.742;13.650;2022-10-03T14:42:36;101608.75;;;15.17;100.00
18918;BME280;9591;52.742;13.650;2022-10-03T14:45:28;101612.22;;;15.19;100.00
18918;BME280;9591;52.742;13.650;2022-10-03T14:48:19;101608.97;;;15.11;100.00
18918;BME280;9591;52.742;13.650;2022-10-03T14:51:12;101603.75;;;15.07;100.00
18918;BME280;9591;52.742;13.650;2022-10-03T14:54:02;101603.97;;;15.01;100.00
18918;BME280;9591;52.742;13.650;2022-10-03T14:56:53;101597.13;;;14.94;100.00
18918;BME280;9591;52.742;13.650;2022-10-03T14:59:48;101596.72;;;15.05;100.00
18918;BME280;9591;52.742;13.650;2022-10-03T15:02:44;101597.66;;;15.27;100.00
18918;BME280;9591;52.742;13.650;2022-10-03T15:05:33;101603.16;;;15.46;100.00
18918;BME280;9591;52.742;13.650;2022-10-03T15:08:22;101583.56;;;15.47;100.00
18918;BME280;9591;52.742;13.650;2022-10-03T15:11:10;101597.25;;;15.38;100.00
18918;BME280;9591;52.742;13.650;2022-10-03T15:14:00;101589.88;;;15.45;100.00
18918;BME280;9591;52.742;13.650;2022-10-03T15:16:52;101592.56;;;15.21;100.00
18918;BME280;9591;52.742;13.650;2022-10-03T15:19:41;101592.56;;;15.21;100.00
18918;BME280;9591;52.742;13.650;2022-10-03T15:22:33;101592.44;;;15.01;100.00
18918;BME280;9591;52.742;13.650;2022-10-03T15:25:25;101591.03;;;14.91;100.00
18918;BME280;9591;52.742;13.650;2022-10-03T15:28:19;101589.28;;;14.90;100.00
18918;BME280;9591;52.742;13.650;2022-10-03T15:31:09;101600.22;;;14.82;100.00
18918;BME280;9591;52.742;13.650;2022-10-03T15:34:01;101595.38;;;14.70;100.00
18918;BME280;9591;52.742;13.650;2022-10-03T15:36:53;101608.22;;;14.59;100.00
18918;BME280;9591;52.742;13.650;2022-10-03T15:39:41;101616.59;;;14.73;100.00
18918;BME280;9591;52.742;13.650;2022-10-03T15:42:30;101617.19;;;14.56;100.00
18918;BME280;9591;52.742;13.650;2022-10-03T15:45:24;101613.84;;;14.50;100.00
18918;BME280;9591;52.742;13.650;2022-10-03T15:48:17;101614.94;;;14.44;100.00
18918;BME280;9591;52.742;13.650;2022-10-03T15:51:15;101608.91;;;14.64;100.00
18918;BME280;9591;52.742;13.650;2022-10-03T15:54:05;101614.16;;;14.67;100.00
18918;BME280;9591;52.742;13.650;2022-10-03T15:56:55;101615.28;;;14.60;100.00
18918;BME280;9591;52.742;13.650;2022-10-03T15:59:43;101612.06;;;14.50;100.00
18918;BME280;9591;52.742;13.650;2022-10-03T16:02:33;101604.13;;;14.49;100.00
18918;BME280;9591;52.742;13.650;2022-10-03T16:05:22;101607.38;;;14.57;100.00
18918;BME280;9591;52.742;13.650;2022-10-03T16:08:18;101614.88;;;14.46;100.00
18918;BME280;9591;52.742;13.650;2022-10-03T16:11:12;101613.16;;;14.45;100.00
18918;BME280;9591;52.742;13.650;2022-10-03T16:14:19;101615.06;;;14.39;100.00
18918;BME280;9591;52.742;13.650;2022-10-03T16:17:14;101613.38;;;14.10;100.00
18918;BME280;9591;52.742;13.650;2022-10-03T16:20:05;101602.28;;;13.96;100.00
18918;BME280;9591;52.742;13.650;2022-10-03T16:22:57;101610.53;;;13.89;100.00
18918;BME280;9591;52.742;13.650;2022-10-03T16:25:48;101608.19;;;13.80;100.00
18918;BME280;9591;52.742;13.650;2022-10-03T16:28:39;101611.75;;;13.78;100.00
18918;BME280;9591;52.742;13.650;2022-10-03T16:31:28;101613.16;;;13.62;100.00
18918;BME280;9591;52.742;13.650;2022-10-03T16:34:23;101604.91;;;13.42;100.00
18918;BME280;9591;52.742;13.650;2022-10-03T16:37:17;101607.72;;;13.37;100.00
18918;BME280;9591;52.742;13.650;2022-10-03T16:40:06;101613.66;;;13.14;100.00
18918;BME280;9591;52.742;13.650;2022-10-03T16:42:57;101609.69;;;13.00;100.00
18918;BME280;9591;52.742;13.650;2022-10-03T16:45:45;101610.00;;;12.89;100.00
18918;BME280;9591;52.742;13.650;2022-10-03T16:48:33;101619.13;;;12.79;100.00
18918;BME280;9591;52.742;13.650;2022-10-03T16:51:40;101615.72;;;12.74;100.00
18918;BME280;9591;52.742;13.650;2022-10-03T16:54:29;101615.13;;;12.63;100.00
18918;BME280;9591;52.742;13.650;2022-10-03T16:57:20;101610.84;;;12.57;100.00
18918;BME280;9591;52.742;13.650;2022-10-03T17:00:14;101616.69;;;12.37;100.00
18918;BME280;9591;52.742;13.650;2022-10-03T17:03:04;101584.72;;;12.08;100.00
18918;BME280;9591;52.742;13.650;2022-10-03T17:06:01;101609.28;;;12.14;100.00
18918;BME280;9591;52.742;13.650;2022-10-03T17:08:52;101616.91;;;11.94;100.00
18918;BME280;9591;52.742;13.650;2022-10-03T17:11:41;101617.28;;;11.77;100.00
18918;BME280;9591;52.742;13.650;2022-10-03T17:14:37;101624.59;;;11.66;100.00
18918;BME280;9591;52.742;13.650;2022-10-03T17:17:29;101626.66;;;11.54;100.00
18918;BME280;9591;52.742;13.650;2022-10-03T17:20:21;101623.38;;;11.41;100.00
18918;BME280;9591;52.742;13.650;2022-10-03T17:23:22;101613.91;;;11.29;100.00
18918;BME280;9591;52.742;13.650;2022-10-03T17:26:15;101614.06;;;11.23;100.00
18918;BME280;9591;52.742;13.650;2022-10-03T17:29:12;101620.50;;;11.11;100.00
18918;BME280;9591;52.742;13.650;2022-10-03T17:32:10;101622.50;;;10.99;100.00
18918;BME280;9591;52.742;13.650;2022-10-03T17:35:05;101623.59;;;10.89;100.00